Time;durP1;ratioP1;P1;durP2;ratioP2;P2;SDS_P1;SDS_P2;PMS_P1;PMS_P2;Temp;Humidity;BMP_temperature;BMP_pressure;BME280_temperature;BME280_humidity;BME280_pressure;Samples;Min_cycle;Max_cycle;Signal;HPM_P1;HPM_P2
2024/02/12 00:00:36;;;;;;;1.60;1.08;;;;;;;9.36;91.27;96484.88;4062702;29;20231;-82
2024/02/12 00:02:52;;;;;;;3.30;1.00;;;;;;;9.37;91.20;96483.91;4077189;29;20213;-82
2024/02/12 00:04:56;;;;;;;2.63;1.13;;;;;;;9.40;90.59;96492.28;4080094;29;20575;-82
2024/02/12 00:06:59;;;;;;;1.95;1.10;;;;;;;9.37;90.56;96486.50;4066926;29;20270;-82
2024/02/12 00:09:03;;;;;;;2.00;1.20;;;;;;;9.38;90.82;96490.75;4067223;29;20238;-83
2024/02/12 00:11:11;;;;;;;1.80;1.00;;;;;;;9.40;89.93;96482.69;4089862;29;20202;-81
2024/02/12 00:13:14;;;;;;;2.03;0.90;;;;;;;9.42;90.57;96485.13;4078896;29;20229;-82
2024/02/12 00:15:21;;;;;;;2.43;1.00;;;;;;;9.45;90.57;96490.88;4074902;29;20766;-82
2024/02/12 00:17:24;;;;;;;1.75;0.80;;;;;;;9.44;90.51;96488.41;4092490;28;20683;-82
2024/02/12 00:19:28;;;;;;;2.90;1.20;;;;;;;9.42;91.05;96487.75;4076302;29;20357;-82
2024/02/12 00:21:32;;;;;;;1.90;1.10;;;;;;;9.37;90.43;96491.69;4083137;29;20215;-82
2024/02/12 00:23:35;;;;;;;4.40;1.40;;;;;;;9.38;90.77;96488.97;4083688;29;20206;-83
2024/02/12 00:25:39;;;;;;;1.70;0.90;;;;;;;9.31;91.04;96487.88;4083114;29;20731;-87
2024/02/12 00:27:43;;;;;;;1.60;1.00;;;;;;;9.29;91.42;96489.81;4078082;29;20220;-88
2024/02/12 00:29:48;;;;;;;1.92;1.02;;;;;;;9.26;91.27;96492.69;4080869;29;20206;-86
2024/02/12 00:31:51;;;;;;;2.30;0.90;;;;;;;9.21;92.21;96492.25;4076439;29;20584;-88
2024/02/12 00:33:54;;;;;;;1.70;0.90;;;;;;;9.20;92.41;96495.81;4081853;29;20216;-87
2024/02/12 00:35:58;;;;;;;1.45;0.85;;;;;;;9.17;93.89;96492.66;4069084;29;20305;-88
2024/02/12 00:38:00;;;;;;;1.52;0.85;;;;;;;9.15;93.65;96492.78;4066768;29;20241;-88
2024/02/12 00:40:08;;;;;;;1.85;0.82;;;;;;;9.13;94.11;96494.72;4082650;29;20225;-87
2024/02/12 00:42:13;;;;;;;1.70;0.90;;;;;;;9.08;93.63;96496.91;4081989;29;20237;-88
2024/02/12 00:44:18;;;;;;;1.63;0.90;;;;;;;9.03;93.70;96496.47;4080506;29;20280;-90
2024/02/12 00:46:21;;;;;;;1.70;0.90;;;;;;;9.06;93.25;96496.19;4081762;29;20213;-90
2024/02/12 00:48:25;;;;;;;2.17;0.90;;;;;;;9.06;94.27;96496.19;4066670;29;20221;-86
2024/02/12 00:50:28;;;;;;;1.60;0.90;;;;;;;9.05;94.07;96499.78;4080254;29;20213;-87
2024/02/12 00:52:33;;;;;;;1.63;0.80;;;;;;;9.04;93.68;96500.72;4077509;29;20847;-86
2024/02/12 00:54:39;;;;;;;2.10;0.80;;;;;;;9.05;94.00;96498.94;4077345;29;20693;-85
2024/02/12 00:56:43;;;;;;;1.60;1.00;;;;;;;9.02;94.23;96496.59;4086126;28;20210;-88
2024/02/12 00:58:48;;;;;;;1.65;0.85;;;;;;;8.97;94.06;96503.97;4070916;29;20221;-88
2024/02/12 01:00:53;;;;;;;1.80;0.90;;;;;;;9.04;94.09;96507.72;4076909;29;20352;-87
2024/02/12 01:03:10;;;;;;;3.00;0.85;;;;;;;9.05;94.16;96511.94;4078447;29;20261;-88
2024/02/12 01:05:14;;;;;;;1.50;0.80;;;;;;;9.05;93.77;96510.19;4078903;29;20621;-88
2024/02/12 01:07:17;;;;;;;1.35;0.77;;;;;;;9.06;93.70;96509.19;4076889;29;20232;-89
2024/02/12 01:09:21;;;;;;;1.90;0.85;;;;;;;9.08;94.04;96509.91;4065257;29;20285;-88
2024/02/12 01:11:24;;;;;;;1.70;0.88;;;;;;;9.13;94.39;96514.72;4072204;29;20229;-88
2024/02/12 01:13:27;;;;;;;2.97;0.85;;;;;;;9.13;94.06;96507.72;4076769;29;20202;-88
2024/02/12 01:15:31;;;;;;;3.88;0.90;;;;;;;9.16;93.83;96510.03;4072627;29;20615;-87
2024/02/12 01:17:53;;;;;;;2.30;0.90;;;;;;;9.18;93.53;96513.31;4073588;29;20654;-88
2024/02/12 01:20:12;;;;;;;2.00;0.90;;;;;;;9.21;94.12;96518.25;4072838;29;20226;-88
2024/02/12 01:22:15;;;;;;;2.03;0.88;;;;;;;9.25;93.77;96517.03;4072982;29;20590;-88
2024/02/12 01:24:28;;;;;;;2.15;0.80;;;;;;;9.28;92.88;96524.56;4077093;29;20202;-88
2024/02/12 01:26:34;;;;;;;1.23;0.60;;;;;;;9.23;93.49;96521.56;4070961;29;20203;-88
2024/02/12 01:28:38;;;;;;;3.20;0.70;;;;;;;9.26;93.96;96518.69;4089852;28;21305;-88
2024/02/12 01:30:42;;;;;;;1.40;0.60;;;;;;;9.23;94.22;96516.38;4073368;29;20214;-88
2024/02/12 01:32:45;;;;;;;1.70;0.90;;;;;;;9.19;94.20;96520.19;4076584;29;20217;-89
2024/02/12 01:34:50;;;;;;;7.75;1.10;;;;;;;9.19;94.30;96519.38;4071690;29;20264;-86
2024/02/12 01:36:54;;;;;;;1.50;0.80;;;;;;;9.17;94.13;96518.66;4065064;29;20217;-88
2024/02/12 01:38:58;;;;;;;1.90;0.70;;;;;;;9.20;94.52;96521.00;4067998;29;21199;-88
2024/02/12 01:41:01;;;;;;;2.10;0.90;;;;;;;9.19;94.23;96524.56;4090756;29;20251;-88
2024/02/12 01:43:04;;;;;;;1.20;0.60;;;;;;;9.21;93.59;96518.25;4075576;29;20300;-88
2024/02/12 01:45:11;;;;;;;1.40;0.80;;;;;;;9.25;93.25;96518.84;4060336;29;20699;-89
2024/02/12 01:47:16;;;;;;;1.65;0.90;;;;;;;9.23;93.23;96518.97;4077999;29;20292;-86
2024/02/12 01:49:27;;;;;;;2.90;1.23;;;;;;;9.22;92.97;96516.50;4064503;29;20215;-87
2024/02/12 01:51:32;;;;;;;2.63;1.10;;;;;;;9.24;93.93;96524.97;4071068;29;20298;-87
2024/02/12 01:53:35;;;;;;;1.90;0.80;;;;;;;9.29;93.74;96525.38;4078473;29;20207;-88
2024/02/12 01:55:38;;;;;;;4.90;0.70;;;;;;;9.28;93.05;96519.38;4077122;29;21256;-88
2024/02/12 01:57:41;;;;;;;3.15;1.02;;;;;;;9.25;93.73;96517.03;4061498;29;21633;-87
2024/02/12 01:59:45;;;;;;;1.50;0.80;;;;;;;9.28;93.23;96518.56;4061572;29;20215;-88
2024/02/12 02:01:48;;;;;;;1.50;0.90;;;;;;;9.25;92.99;96519.63;4077682;29;20229;-88
2024/02/12 02:03:51;;;;;;;1.80;0.80;;;;;;;9.27;93.34;96517.72;4060633;29;20720;-88
2024/02/12 02:05:55;;;;;;;1.55;0.75;;;;;;;9.27;93.26;96522.91;4062025;29;20796;-89
2024/02/12 02:08:00;;;;;;;2.00;1.05;;;;;;;9.24;93.74;96515.38;4077541;29;20332;-86
2024/02/12 02:10:09;;;;;;;1.88;1.05;;;;;;;9.24;93.17;96518.00;4074658;29;20213;-88
2024/02/12 02:12:13;;;;;;;3.38;0.80;;;;;;;9.26;93.04;96518.69;4077196;29;20198;-87
2024/02/12 02:14:22;;;;;;;1.65;0.77;;;;;;;9.26;94.00;96516.09;4062170;29;20297;-89
2024/02/12 02:16:38;;;;;;;1.60;0.80;;;;;;;9.22;93.64;96526.91;4077265;29;20215;-88
2024/02/12 02:18:46;;;;;;;2.10;0.70;;;;;;;9.20;93.41;96516.63;4080007;29;20309;-88
2024/02/12 02:20:57;;;;;;;1.45;0.80;;;;;;;9.17;93.80;96516.91;4054515;29;20234;-88
2024/02/12 02:23:01;;;;;;;1.20;0.70;;;;;;;9.15;94.21;96523.19;4077971;29;20210;-88
2024/02/12 02:25:12;;;;;;;1.42;0.70;;;;;;;9.13;94.27;96525.09;4056406;29;20266;-89
2024/02/12 02:27:15;;;;;;;1.70;0.90;;;;;;;9.14;94.58;96522.38;4070081;29;20250;-89
2024/02/12 02:29:18;;;;;;;1.50;0.70;;;;;;;9.17;95.21;96524.69;4055106;29;20254;-88
2024/02/12 02:31:22;;;;;;;2.25;0.80;;;;;;;9.13;94.31;96528.53;4054575;29;20208;-87
2024/02/12 02:33:25;;;;;;;1.55;0.85;;;;;;;9.11;95.50;96521.78;4090698;28;20268;-88
2024/02/12 02:35:27;;;;;;;1.67;0.70;;;;;;;9.14;94.65;96527.56;4062102;29;20206;-88
2024/02/12 02:37:31;;;;;;;2.25;0.93;;;;;;;9.20;95.16;96528.78;4075253;29;20560;-87
2024/02/12 02:39:34;;;;;;;1.60;0.70;;;;;;;9.22;94.68;96527.72;4078690;29;20213;-87
2024/02/12 02:41:42;;;;;;;1.70;0.70;;;;;;;9.20;94.83;96531.41;4075207;29;20712;-87
2024/02/12 02:43:45;;;;;;;1.58;1.00;;;;;;;9.18;94.44;96533.31;4070066;29;20210;-89
2024/02/12 02:45:49;;;;;;;1.90;0.82;;;;;;;9.14;95.03;96530.19;4061783;29;20215;-89
2024/02/12 02:47:56;;;;;;;1.67;0.80;;;;;;;9.14;95.16;96540.56;4061094;29;20208;-88
2024/02/12 02:49:59;;;;;;;1.63;0.80;;;;;;;9.17;94.75;96542.91;4058729;29;20210;-88
2024/02/12 02:52:03;;;;;;;2.10;0.85;;;;;;;9.23;94.62;96542.38;4079659;28;20203;-88
2024/02/12 02:54:08;;;;;;;1.40;0.80;;;;;;;9.20;94.64;96536.59;4077852;29;20571;-87
2024/02/12 02:56:11;;;;;;;1.50;0.95;;;;;;;9.19;94.96;96535.78;4064793;29;20214;-88
2024/02/12 02:58:15;;;;;;;2.70;0.90;;;;;;;9.18;95.38;96544.53;4082920;28;20911;-88
2024/02/12 03:00:19;;;;;;;2.08;1.10;;;;;;;9.17;95.45;96548.09;4070036;29;20211;-88
2024/02/12 03:02:21;;;;;;;1.60;0.88;;;;;;;9.15;94.65;96538.78;4078923;29;20222;-88
2024/02/12 03:04:25;;;;;;;2.80;0.88;;;;;;;9.13;94.66;96541.53;4076299;29;20213;-88
2024/02/12 03:06:27;;;;;;;1.50;0.70;;;;;;;9.05;94.79;96541.38;4061619;29;20515;-88
2024/02/12 03:08:34;;;;;;;2.25;1.05;;;;;;;9.04;95.36;96541.50;4078932;29;20568;-86
2024/02/12 03:10:37;;;;;;;4.15;0.80;;;;;;;9.04;95.35;96547.53;4062963;29;20238;-88
2024/02/12 03:12:41;;;;;;;2.67;0.80;;;;;;;9.06;95.17;96544.78;4074132;29;20740;-87
2024/02/12 03:14:47;;;;;;;2.65;1.10;;;;;;;9.07;95.75;96544.66;4074381;29;20244;-88
2024/02/12 03:16:53;;;;;;;1.80;0.70;;;;;;;9.07;95.60;96547.25;4065437;29;20206;-88
2024/02/12 03:18:58;;;;;;;1.30;0.70;;;;;;;9.08;94.69;96546.31;4071260;29;20313;-88
2024/02/12 03:21:01;;;;;;;2.28;0.60;;;;;;;9.05;95.81;96546.56;4089171;28;20642;-87
2024/02/12 03:23:05;;;;;;;1.40;0.80;;;;;;;9.04;95.48;96550.13;4060741;29;20662;-88
2024/02/12 03:25:10;;;;;;;1.50;0.80;;;;;;;9.06;95.42;96555.19;4075806;29;20206;-88
2024/02/12 03:27:14;;;;;;;1.30;0.70;;;;;;;9.07;94.68;96556.84;4075435;29;20776;-88
2024/02/12 03:29:19;;;;;;;1.70;0.82;;;;;;;9.00;94.66;96555.72;4073307;29;20212;-89
2024/02/12 03:31:23;;;;;;;1.90;1.00;;;;;;;8.94;95.93;96562.28;4072714;29;20615;-88
2024/02/12 03:33:26;;;;;;;1.92;0.60;;;;;;;8.92;96.15;96562.56;4075889;29;20229;-87
2024/02/12 03:35:30;;;;;;;2.95;0.80;;;;;;;8.92;96.70;96570.34;4068701;29;20211;-86
2024/02/12 03:37:34;;;;;;;3.15;0.80;;;;;;;8.92;96.91;96575.56;4054240;29;20302;-88
2024/02/12 03:39:37;;;;;;;2.03;1.00;;;;;;;8.94;96.59;96577.03;4066814;29;20202;-88
2024/02/12 03:41:40;;;;;;;1.98;1.00;;;;;;;8.96;95.57;96581.16;4076173;29;20231;-89
2024/02/12 03:43:43;;;;;;;1.67;0.90;;;;;;;8.97;96.14;96577.59;4079146;29;20202;-88
2024/02/12 03:45:47;;;;;;;1.50;0.88;;;;;;;9.01;96.18;96586.78;4073772;29;20221;-87
2024/02/12 03:47:51;;;;;;;1.83;0.90;;;;;;;9.08;96.39;96595.72;4058373;29;20214;-88
2024/02/12 04:01:41;;;;;;;1.77;0.80;;;;;;;9.24;95.24;96596.00;4074295;29;20226;-82
2024/02/12 04:03:49;;;;;;;1.70;0.88;;;;;;;9.28;94.91;96607.00;4070664;29;20637;-82
2024/02/12 04:05:52;;;;;;;2.22;0.90;;;;;;;9.29;94.87;96614.66;4077764;29;20320;-82
2024/02/12 04:07:54;;;;;;;2.50;1.10;;;;;;;9.32;94.16;96608.34;4072342;29;20226;-82
2024/02/12 04:09:59;;;;;;;1.77;0.77;;;;;;;9.29;94.44;96614.66;4083562;28;20664;-82
2024/02/12 04:12:06;;;;;;;2.08;1.10;;;;;;;9.28;94.77;96614.81;4091569;28;21018;-83
2024/02/12 04:14:09;;;;;;;1.80;0.73;;;;;;;9.30;94.81;96616.28;4077398;29;20286;-83
2024/02/12 04:16:14;;;;;;;1.75;0.85;;;;;;;9.26;95.31;96614.94;4058838;29;20295;-82
2024/02/12 04:18:22;;;;;;;1.77;0.83;;;;;;;9.28;95.64;96620.81;4077786;29;20297;-82
2024/02/12 04:20:27;;;;;;;1.60;0.88;;;;;;;9.27;94.45;96620.94;4061574;29;20623;-82
2024/02/12 04:22:33;;;;;;;2.20;0.77;;;;;;;9.30;94.91;96625.88;4069106;29;20234;-84
2024/02/12 04:24:38;;;;;;;1.47;0.80;;;;;;;9.35;94.95;96634.09;4077287;29;20626;-84
2024/02/12 04:26:42;;;;;;;2.07;1.00;;;;;;;9.29;93.94;96635.47;4088352;29;21191;-84
2024/02/12 04:28:45;;;;;;;1.87;0.83;;;;;;;9.29;94.78;96632.88;4079265;29;20656;-84
2024/02/12 04:30:49;;;;;;;1.60;0.73;;;;;;;9.31;94.44;96632.75;4060222;29;20711;-84
2024/02/12 04:32:52;;;;;;;1.85;0.98;;;;;;;9.38;94.53;96636.44;4079289;29;20672;-82
2024/02/12 04:34:56;;;;;;;2.00;0.90;;;;;;;9.38;93.97;96645.91;4076987;29;20214;-84
2024/02/12 04:37:01;;;;;;;1.35;0.80;;;;;;;9.38;94.75;96645.91;4076421;29;20216;-84
2024/02/12 04:39:04;;;;;;;2.63;0.93;;;;;;;9.38;94.03;96660.66;4061005;29;20199;-84
2024/02/12 04:41:08;;;;;;;1.77;1.00;;;;;;;9.37;93.95;96650.41;4075509;29;20740;-84
2024/02/12 04:43:11;;;;;;;2.10;0.80;;;;;;;9.35;93.88;96660.13;4065108;29;20661;-83
2024/02/12 04:45:16;;;;;;;1.53;0.80;;;;;;;9.31;93.76;96658.75;4078955;29;20629;-85
2024/02/12 04:47:20;;;;;;;2.23;1.10;;;;;;;9.29;93.96;96658.88;4080497;29;20638;-85
2024/02/12 04:49:24;;;;;;;1.90;0.85;;;;;;;9.31;93.93;96667.38;4094796;29;20987;-84
2024/02/12 04:51:28;;;;;;;1.83;0.97;;;;;;;9.34;93.95;96668.91;4081585;29;20668;-85
2024/02/12 04:53:33;;;;;;;1.90;1.00;;;;;;;9.39;94.06;96667.53;4058284;29;20630;-84
2024/02/12 04:55:36;;;;;;;2.10;1.20;;;;;;;9.46;93.55;96673.88;4095219;29;20657;-84
2024/02/12 04:57:40;;;;;;;2.53;1.02;;;;;;;9.51;93.71;96676.88;4074801;29;20289;-85
2024/02/12 04:59:45;;;;;;;1.98;1.17;;;;;;;9.56;93.35;96678.13;4062928;29;20208;-85
2024/02/12 05:01:47;;;;;;;1.63;0.93;;;;;;;9.60;93.12;96681.28;4065604;29;20233;-82
2024/02/12 05:03:51;;;;;;;2.27;1.20;;;;;;;9.62;93.08;96681.97;4074935;29;20642;-84
2024/02/12 05:05:54;;;;;;;2.35;1.23;;;;;;;9.67;93.30;96687.63;4079652;29;20668;-84
2024/02/12 05:07:57;;;;;;;3.13;1.25;;;;;;;9.69;92.46;96685.69;4072783;29;20214;-85
2024/02/12 05:10:02;;;;;;;2.37;1.10;;;;;;;9.74;92.80;96686.09;4074028;29;20412;-85
2024/02/12 05:12:07;;;;;;;1.53;0.90;;;;;;;9.76;92.73;96686.78;4061415;29;20629;-83
2024/02/12 05:14:10;;;;;;;3.00;1.50;;;;;;;9.79;92.70;96686.53;4079536;29;20637;-84
2024/02/12 05:16:14;;;;;;;2.10;1.00;;;;;;;9.83;92.68;96688.72;4064806;29;21052;-84
2024/02/12 05:22:58;;;;;;;1.93;1.30;;;;;;;9.88;92.51;96687.38;4075373;29;20294;-82
2024/02/12 05:25:05;;;;;;;1.97;1.10;;;;;;;9.89;92.36;96696.84;4080015;29;20645;-82
2024/02/12 05:27:08;;;;;;;1.73;1.00;;;;;;;9.90;91.81;96692.44;4065956;29;20657;-82
2024/02/12 05:29:12;;;;;;;2.30;1.00;;;;;;;9.88;91.73;96692.56;4061191;29;20673;-83
2024/02/12 05:31:15;;;;;;;2.10;1.07;;;;;;;9.83;91.82;96696.53;4082277;29;20653;-82
2024/02/12 05:33:19;;;;;;;1.80;0.90;;;;;;;9.85;91.39;96702.44;4077832;29;20634;-82
2024/02/12 05:35:23;;;;;;;1.90;1.10;;;;;;;9.89;92.08;96698.59;4076991;29;20623;-82
2024/02/12 05:37:27;;;;;;;1.53;0.97;;;;;;;9.91;92.15;96696.69;4074199;29;20626;-82
2024/02/12 05:39:31;;;;;;;1.67;1.03;;;;;;;9.95;92.19;96704.16;4064083;29;20629;-82
2024/02/12 05:41:37;;;;;;;1.70;1.00;;;;;;;9.95;92.02;96698.09;4067682;29;20625;-82
2024/02/12 05:43:40;;;;;;;2.90;1.30;;;;;;;9.98;91.90;96705.63;4076966;29;20821;-83
2024/02/12 05:45:45;;;;;;;1.85;1.15;;;;;;;10.00;90.66;96711.56;4061074;29;20639;-82
2024/02/12 05:47:48;;;;;;;2.23;1.10;;;;;;;9.99;91.76;96715.91;4067018;29;20219;-83
2024/02/12 05:49:53;;;;;;;1.50;1.00;;;;;;;9.97;91.30;96707.44;4068705;29;20636;-82
2024/02/12 05:51:56;;;;;;;1.90;1.20;;;;;;;9.99;91.32;96715.91;4075981;29;20638;-81
2024/02/12 05:54:00;;;;;;;2.27;1.13;;;;;;;9.99;91.24;96715.91;4074750;29;20640;-82
2024/02/12 05:56:06;;;;;;;3.60;1.00;;;;;;;10.00;91.16;96716.75;4062939;29;20734;-82
2024/02/12 05:58:12;;;;;;;2.67;1.20;;;;;;;9.98;90.50;96718.66;4073161;29;20750;-82
2024/02/12 06:00:16;;;;;;;2.37;1.53;;;;;;;9.92;90.73;96717.41;4090753;29;21249;-82
2024/02/12 06:02:28;;;;;;;3.20;1.30;;;;;;;9.81;91.42;96716.69;4076511;29;21238;-82
2024/02/12 06:04:32;;;;;;;2.70;1.50;;;;;;;9.76;91.44;96720.63;4060491;29;20730;-83
2024/02/12 06:06:37;;;;;;;2.60;1.80;;;;;;;9.69;91.61;96722.94;4076764;29;20666;-82
2024/02/12 06:08:41;;;;;;;2.60;1.60;;;;;;;9.68;91.67;96723.09;4089934;29;20637;-83
2024/02/12 06:10:44;;;;;;;2.70;1.90;;;;;;;9.64;92.17;96725.13;4079273;29;20647;-83
2024/02/12 06:12:48;;;;;;;4.03;1.97;;;;;;;9.53;92.15;96729.59;4073529;29;21223;-83
2024/02/12 06:14:54;;;;;;;3.67;2.30;;;;;;;9.42;93.39;96727.91;4062299;29;20701;-82
2024/02/12 06:16:59;;;;;;;4.50;2.00;;;;;;;9.39;92.85;96736.00;4073715;29;20753;-83
2024/02/12 06:19:03;;;;;;;4.20;2.20;;;;;;;9.43;93.12;96736.56;4078675;29;20642;-82
2024/02/12 06:21:06;;;;;;;4.07;2.37;;;;;;;9.46;92.58;96741.50;4075299;29;20645;-83
2024/02/12 06:23:10;;;;;;;4.97;2.47;;;;;;;9.48;92.63;96737.00;4079375;29;20743;-82
2024/02/12 06:25:13;;;;;;;5.77;2.90;;;;;;;9.50;92.57;96737.66;4060014;29;20213;-82
2024/02/12 06:27:17;;;;;;;5.13;2.93;;;;;;;9.56;92.40;96745.81;4075977;29;20634;-82
2024/02/12 06:29:20;;;;;;;6.13;2.93;;;;;;;9.58;92.08;96750.88;4064226;29;20690;-82
2024/02/12 06:31:23;;;;;;;3.90;2.40;;;;;;;9.53;92.21;96751.28;4059877;29;20652;-81
2024/02/12 06:33:27;;;;;;;3.90;2.45;;;;;;;9.56;92.34;96760.56;4070912;29;20732;-82
2024/02/12 06:35:30;;;;;;;5.20;2.87;;;;;;;9.57;92.55;96762.22;4074405;29;20203;-83
2024/02/12 06:37:38;;;;;;;4.00;2.90;;;;;;;9.58;92.98;96766.50;4075872;29;20641;-82
2024/02/12 06:39:43;;;;;;;4.03;2.60;;;;;;;9.63;93.11;96767.72;4061278;29;20638;-83
2024/02/12 06:41:47;;;;;;;5.80;2.50;;;;;;;9.61;92.42;96774.03;4062455;29;20634;-82
2024/02/12 06:43:51;;;;;;;4.43;2.88;;;;;;;9.60;92.43;96770.59;4077241;29;20301;-82
2024/02/12 06:45:53;;;;;;;4.57;2.70;;;;;;;9.58;92.64;96776.91;4073385;29;20207;-83
2024/02/12 06:47:58;;;;;;;4.50;3.05;;;;;;;9.63;92.78;96779.94;4073521;29;20648;-82
2024/02/12 06:50:01;;;;;;;6.07;3.30;;;;;;;9.67;92.66;96778.72;4075815;29;20210;-83
2024/02/12 06:52:06;;;;;;;6.95;2.80;;;;;;;9.70;92.71;96781.06;4091519;28;20202;-82
2024/02/12 06:54:10;;;;;;;5.38;3.33;;;;;;;9.71;92.90;96790.50;4061405;29;20709;-82
2024/02/12 06:56:14;;;;;;;5.10;3.00;;;;;;;9.73;92.33;96788.59;4075794;29;20202;-82
2024/02/12 06:58:18;;;;;;;6.00;3.30;;;;;;;9.71;92.66;96793.94;4063347;29;20799;-83
2024/02/12 07:00:21;;;;;;;6.70;3.60;;;;;;;9.73;92.77;96799.84;4074702;29;20644;-82
2024/02/12 07:02:25;;;;;;;9.73;3.70;;;;;;;9.77;92.70;96803.00;4075670;29;20680;-82
2024/02/12 07:04:30;;;;;;;5.60;3.67;;;;;;;9.81;92.49;96804.38;4077441;29;20689;-82
2024/02/12 07:06:35;;;;;;;7.63;3.85;;;;;;;9.83;92.86;96808.50;4088983;28;20691;-83
2024/02/12 07:08:40;;;;;;;6.40;3.60;;;;;;;9.84;92.62;96809.34;4077167;29;20296;-82
2024/02/12 07:10:44;;;;;;;6.10;4.00;;;;;;;9.84;92.83;96806.72;4054526;29;20571;-82
2024/02/12 07:12:47;;;;;;;6.70;4.10;;;;;;;9.85;92.67;96812.63;4075092;29;20631;-82
2024/02/12 07:14:52;;;;;;;7.35;4.35;;;;;;;9.89;92.58;96811.41;4074842;29;20745;-82
2024/02/12 07:16:56;;;;;;;5.40;3.50;;;;;;;9.91;92.97;96817.31;4076893;29;20210;-83
2024/02/12 07:19:00;;;;;;;7.97;4.77;;;;;;;9.94;93.04;96819.69;4073586;29;20636;-83
2024/02/12 07:21:05;;;;;;;5.70;3.90;;;;;;;9.98;92.46;96820.22;4075505;29;21067;-82
2024/02/12 07:23:09;;;;;;;9.10;4.53;;;;;;;9.99;91.75;96825.31;4062615;29;20626;-82
2024/02/12 07:25:13;;;;;;;5.87;4.17;;;;;;;9.97;91.32;96829.00;4067458;29;20662;-82
2024/02/12 07:27:26;;;;;;;4.87;3.20;;;;;;;9.96;91.64;96824.75;4070080;29;20634;-88
2024/02/12 07:29:30;;;;;;;4.50;3.57;;;;;;;9.98;91.01;96834.09;4078555;29;20688;-87
2024/02/12 07:31:33;;;;;;;6.03;3.47;;;;;;;10.01;91.16;96832.97;4058935;29;21288;-87
2024/02/12 07:33:37;;;;;;;5.20;3.40;;;;;;;9.99;90.32;96840.13;4075117;29;21002;-88
2024/02/12 07:35:43;;;;;;;8.70;3.53;;;;;;;10.01;90.56;96844.25;4089536;28;21004;-88
2024/02/12 07:37:49;;;;;;;6.93;3.63;;;;;;;10.03;90.72;96852.75;4063578;29;20638;-88
2024/02/12 07:39:52;;;;;;;5.63;3.10;;;;;;;10.04;90.55;96849.19;4061255;29;20664;-87
2024/02/12 07:41:58;;;;;;;5.73;3.60;;;;;;;10.07;91.17;96856.75;4062119;29;20669;-88
2024/02/12 07:44:03;;;;;;;3.90;2.83;;;;;;;10.07;90.34;96856.75;4061261;29;20663;-86
2024/02/12 07:46:07;;;;;;;5.43;3.00;;;;;;;10.03;90.03;96862.34;4059451;29;20635;-88
2024/02/12 07:48:12;;;;;;;7.63;3.80;;;;;;;10.06;90.24;96872.50;4053710;29;20743;-88
2024/02/12 07:50:15;;;;;;;7.80;4.23;;;;;;;10.07;89.67;96871.53;4073860;29;20986;-87
2024/02/12 07:52:18;;;;;;;6.10;3.70;;;;;;;10.08;90.01;96866.19;4057686;29;20646;-88
2024/02/12 07:54:22;;;;;;;8.00;2.90;;;;;;;10.12;90.06;96877.19;4077749;29;20647;-86
2024/02/12 07:56:27;;;;;;;4.97;2.80;;;;;;;10.13;89.59;96869.25;4050747;29;20623;-88
2024/02/12 07:58:31;;;;;;;5.77;3.17;;;;;;;10.16;90.37;96881.16;4077308;29;20681;-87
2024/02/12 08:00:36;;;;;;;5.83;3.47;;;;;;;10.19;90.00;96878.28;4058159;29;20638;-88
2024/02/12 08:02:40;;;;;;;5.73;3.57;;;;;;;10.20;89.82;96885.97;4064038;29;20765;-87
2024/02/12 08:04:44;;;;;;;4.67;3.33;;;;;;;10.19;89.36;96889.53;4083247;29;20729;-87
2024/02/12 08:06:48;;;;;;;7.97;3.47;;;;;;;10.21;89.01;96886.78;4062137;29;21033;-87
2024/02/12 08:08:55;;;;;;;7.53;3.57;;;;;;;10.22;89.36;96886.66;4066413;29;20688;-88
2024/02/12 08:11:03;;;;;;;5.60;3.40;;;;;;;10.18;90.36;96887.91;4073798;29;21071;-88
2024/02/12 08:13:07;;;;;;;3.87;3.07;;;;;;;10.20;89.30;96891.19;4075076;29;20645;-88
2024/02/12 08:15:12;;;;;;;7.10;3.20;;;;;;;10.15;90.32;96895.97;4076784;29;20666;-87
2024/02/12 08:17:35;;;;;;;5.47;3.60;;;;;;;10.15;90.62;96895.97;4076689;29;20621;-87
2024/02/12 08:19:41;;;;;;;6.63;3.47;;;;;;;10.13;90.28;96905.72;4077847;29;20757;-88
2024/02/12 08:21:45;;;;;;;4.70;3.23;;;;;;;10.11;90.71;96901.56;4078997;29;20630;-87
2024/02/12 08:23:48;;;;;;;5.90;3.97;;;;;;;10.10;91.13;96910.34;4080291;29;20633;-85
2024/02/12 08:25:52;;;;;;;4.90;3.80;;;;;;;10.02;91.53;96911.00;4078593;29;20636;-88
2024/02/12 08:27:57;;;;;;;5.73;4.07;;;;;;;10.00;91.01;96915.50;4060608;29;21261;-88
2024/02/12 08:30:01;;;;;;;6.73;4.40;;;;;;;9.96;91.84;96921.09;4077905;29;21272;-86
2024/02/12 08:32:04;;;;;;;8.33;4.90;;;;;;;9.94;91.67;96918.63;4077986;29;20636;-88
2024/02/12 08:34:08;;;;;;;5.80;4.20;;;;;;;9.91;91.95;96924.06;4072370;29;20684;-88
2024/02/12 08:36:14;;;;;;;6.73;4.20;;;;;;;9.88;91.52;96919.13;4077668;29;20646;-87
2024/02/12 08:38:18;;;;;;;8.30;4.30;;;;;;;9.87;91.63;96920.06;4060796;29;21015;-88
2024/02/12 08:40:22;;;;;;;6.83;4.43;;;;;;;9.89;92.56;96931.19;4075024;29;20700;-87
2024/02/12 08:42:26;;;;;;;8.37;4.53;;;;;;;9.90;91.94;96935.44;4070239;29;20633;-88
2024/02/12 08:44:32;;;;;;;8.03;4.90;;;;;;;9.89;92.03;96936.41;4060877;29;20706;-88
2024/02/12 08:46:35;;;;;;;6.43;4.53;;;;;;;9.96;92.52;96934.94;4076950;29;20622;-82
2024/02/12 08:48:40;;;;;;;8.13;4.37;;;;;;;10.04;92.84;96942.13;4064655;29;20659;-82
2024/02/12 08:50:43;;;;;;;5.93;4.43;;;;;;;10.11;92.28;96940.66;4077639;29;20622;-82
2024/02/12 08:52:46;;;;;;;7.07;5.10;;;;;;;10.14;92.29;96946.41;4079844;29;20639;-82
2024/02/12 08:54:50;;;;;;;7.37;5.17;;;;;;;10.19;91.48;96944.25;4090824;28;20635;-82
2024/02/12 08:56:53;;;;;;;6.33;4.20;;;;;;;10.21;92.02;96949.31;4063972;29;20642;-82
2024/02/12 08:58:56;;;;;;;6.10;4.20;;;;;;;10.21;91.15;96950.16;4055908;29;20658;-82
2024/02/12 09:01:01;;;;;;;10.17;5.80;;;;;;;10.19;91.00;96959.06;4056838;29;20635;-82
2024/02/12 09:03:24;;;;;;;5.03;3.80;;;;;;;10.21;91.18;96960.59;4075262;29;20737;-82
2024/02/12 09:05:27;;;;;;;6.73;4.53;;;;;;;10.24;91.84;96965.53;4077871;29;20670;-82
2024/02/12 09:07:30;;;;;;;6.47;4.10;;;;;;;10.24;91.22;96960.31;4077113;29;20688;-82
2024/02/12 09:09:34;;;;;;;6.83;4.17;;;;;;;10.24;91.28;96960.31;4058582;29;21291;-82
2024/02/12 09:11:37;;;;;;;5.17;3.50;;;;;;;10.22;90.43;96967.44;4083066;29;21118;-82
2024/02/12 09:13:46;;;;;;;8.00;3.65;;;;;;;10.17;90.50;96967.00;4079598;29;20732;-82
2024/02/12 09:15:49;;;;;;;5.93;3.50;;;;;;;10.20;91.38;96966.75;4065324;29;20262;-82
2024/02/12 09:17:55;;;;;;;6.93;4.00;;;;;;;10.18;91.42;96970.41;4079059;29;20630;-82
2024/02/12 09:20:00;;;;;;;4.47;3.20;;;;;;;10.19;90.89;96972.91;4084472;28;20636;-82
2024/02/12 09:22:04;;;;;;;6.65;4.00;;;;;;;10.18;90.77;96973.88;4063685;29;20800;-83
2024/02/12 09:24:08;;;;;;;5.67;3.67;;;;;;;10.22;90.66;96975.25;4079650;29;20221;-81
2024/02/12 09:26:12;;;;;;;5.03;3.45;;;;;;;10.31;90.91;96978.88;4059941;29;20698;-82
2024/02/12 09:28:16;;;;;;;5.40;3.57;;;;;;;10.38;90.20;96980.81;4078613;29;20237;-82
2024/02/12 09:30:20;;;;;;;6.30;4.10;;;;;;;10.41;90.22;96985.78;4085003;28;21235;-84
2024/02/12 09:32:23;;;;;;;9.15;3.60;;;;;;;10.43;89.97;96979.47;4052573;29;20635;-82
2024/02/12 09:34:27;;;;;;;5.23;3.63;;;;;;;10.47;89.67;96985.25;4068811;29;20277;-82
2024/02/12 09:36:31;;;;;;;6.17;3.50;;;;;;;10.48;90.12;96990.31;4075044;29;20664;-82
2024/02/12 09:38:34;;;;;;;5.90;3.03;;;;;;;10.49;90.41;96993.75;4075166;29;21258;-82
2024/02/12 09:40:41;;;;;;;6.70;3.80;;;;;;;10.55;89.71;96995.84;4080524;29;20666;-82
2024/02/12 09:42:44;;;;;;;5.60;3.40;;;;;;;10.57;89.71;96996.50;4077288;29;20634;-83
2024/02/12 09:44:48;;;;;;;5.67;3.20;;;;;;;10.57;89.13;96999.97;4075268;29;20626;-82
2024/02/12 09:46:55;;;;;;;6.93;3.67;;;;;;;10.57;89.70;96999.13;4074262;29;21103;-82
2024/02/12 09:48:58;;;;;;;4.70;3.07;;;;;;;10.56;88.44;97003.53;4076539;29;20639;-82
2024/02/12 09:51:05;;;;;;;4.10;3.00;;;;;;;10.55;87.75;97001.88;4079435;29;20748;-83
2024/02/12 09:53:09;;;;;;;4.67;3.13;;;;;;;10.45;89.29;97000.19;4076221;29;20662;-83
2024/02/12 09:55:12;;;;;;;5.70;3.37;;;;;;;10.49;88.97;96997.19;4076818;29;20645;-82
2024/02/12 09:57:16;;;;;;;7.83;3.47;;;;;;;10.57;88.44;97005.19;4076909;29;20664;-82
2024/02/12 09:59:21;;;;;;;3.17;2.57;;;;;;;10.66;89.50;96998.34;4085921;28;20691;-82
2024/02/12 10:01:24;;;;;;;5.00;2.65;;;;;;;10.76;88.46;97005.25;4077462;29;20629;-83
2024/02/12 10:03:48;;;;;;;4.77;2.83;;;;;;;10.86;88.67;97006.91;4076902;29;20269;-83
2024/02/12 10:06:13;;;;;;;4.35;2.95;;;;;;;10.96;87.32;97007.78;4074658;29;20962;-83
2024/02/12 10:08:37;;;;;;;4.90;2.90;;;;;;;11.02;87.08;97011.63;4070301;29;20270;-82